sensor_id;sensor_type;location;lat;lon;timestamp;P1;durP1;ratioP1;P2;durP2;ratioP2
50122;SDS011;36021;48.670;6.184;2022-07-31T00:00:30;4.90;;;1.45;;
50122;SDS011;36021;48.670;6.184;2022-07-31T00:02:56;4.55;;;1.73;;
50122;SDS011;36021;48.670;6.184;2022-07-31T00:05:22;4.25;;;1.67;;
50122;SDS011;36021;48.670;6.184;2022-07-31T00:07:49;2.83;;;1.70;;
50122;SDS011;36021;48.670;6.184;2022-07-31T00:10:15;3.90;;;1.33;;
50122;SDS011;36021;48.670;6.184;2022-07-31T00:12:41;2.90;;;1.60;;
50122;SDS011;36021;48.670;6.184;2022-07-31T00:15:07;2.00;;;1.73;;
50122;SDS011;36021;48.670;6.184;2022-07-31T00:17:37;2.30;;;1.40;;
50122;SDS011;36021;48.670;6.184;2022-07-31T00:20:06;3.00;;;1.70;;
50122;SDS011;36021;48.670;6.184;2022-07-31T00:22:36;2.50;;;1.73;;
50122;SDS011;36021;48.670;6.184;2022-07-31T00:25:03;1.80;;;1.45;;
50122;SDS011;36021;48.670;6.184;2022-07-31T00:27:30;2.25;;;1.45;;
50122;SDS011;36021;48.670;6.184;2022-07-31T00:29:55;1.52;;;1.38;;
50122;SDS011;36021;48.670;6.184;2022-07-31T00:32:21;2.08;;;1.38;;
50122;SDS011;36021;48.670;6.184;2022-07-31T00:34:48;2.42;;;1.80;;
50122;SDS011;36021;48.670;6.184;2022-07-31T00:37:13;5.10;;;1.52;;
50122;SDS011;36021;48.670;6.184;2022-07-31T00:39:41;4.37;;;1.70;;
50122;SDS011;36021;48.670;6.184;2022-07-31T00:42:17;1.70;;;1.30;;
50122;SDS011;36021;48.670;6.184;2022-07-31T00:44:46;1.45;;;1.35;;
50122;SDS011;36021;48.670;6.184;2022-07-31T00:47:12;2.47;;;1.50;;
50122;SDS011;36021;48.670;6.184;2022-07-31T00:49:38;1.60;;;1.50;;
50122;SDS011;36021;48.670;6.184;2022-07-31T00:52:04;2.20;;;1.30;;
50122;SDS011;36021;48.670;6.184;2022-07-31T00:54:31;1.75;;;1.60;;
50122;SDS011;36021;48.670;6.184;2022-07-31T00:56:57;1.67;;;1.45;;
50122;SDS011;36021;48.670;6.184;2022-07-31T00:59:22;1.30;;;1.17;;
50122;SDS011;36021;48.670;6.184;2022-07-31T01:01:48;3.05;;;1.77;;
50122;SDS011;36021;48.670;6.184;2022-07-31T01:04:13;1.52;;;1.27;;
50122;SDS011;36021;48.670;6.184;2022-07-31T01:06:43;3.70;;;1.33;;
50122;SDS011;36021;48.670;6.184;2022-07-31T01:09:09;1.77;;;1.35;;
50122;SDS011;36021;48.670;6.184;2022-07-31T01:11:48;2.67;;;1.50;;
50122;SDS011;36021;48.670;6.184;2022-07-31T01:14:21;3.50;;;1.50;;
50122;SDS011;36021;48.670;6.184;2022-07-31T01:16:52;2.05;;;1.58;;
50122;SDS011;36021;48.670;6.184;2022-07-31T01:19:22;1.95;;;1.75;;
50122;SDS011;36021;48.670;6.184;2022-07-31T01:28:17;1.92;;;1.65;;
50122;SDS011;36021;48.670;6.184;2022-07-31T01:31:10;2.27;;;1.57;;
50122;SDS011;36021;48.670;6.184;2022-07-31T01:34:24;1.70;;;1.60;;
50122;SDS011;36021;48.670;6.184;2022-07-31T01:36:33;4.43;;;1.52;;
50122;SDS011;36021;48.670;6.184;2022-07-31T01:39:04;5.22;;;2.35;;
50122;SDS011;36021;48.670;6.184;2022-07-31T01:41:32;4.65;;;1.83;;
50122;SDS011;36021;48.670;6.184;2022-07-31T01:44:02;2.65;;;1.60;;
50122;SDS011;36021;48.670;6.184;2022-07-31T01:46:30;2.28;;;1.38;;
50122;SDS011;36021;48.670;6.184;2022-07-31T01:48:57;3.10;;;1.55;;
50122;SDS011;36021;48.670;6.184;2022-07-31T01:51:25;4.15;;;1.55;;
50122;SDS011;36021;48.670;6.184;2022-07-31T01:53:53;1.80;;;1.63;;
50122;SDS011;36021;48.670;6.184;2022-07-31T01:56:20;2.38;;;1.50;;
50122;SDS011;36021;48.670;6.184;2022-07-31T01:58:47;2.13;;;1.70;;
50122;SDS011;36021;48.670;6.184;2022-07-31T02:01:32;3.45;;;1.55;;
50122;SDS011;36021;48.670;6.184;2022-07-31T02:06:28;2.40;;;1.70;;
50122;SDS011;36021;48.670;6.184;2022-07-31T02:08:55;1.88;;;1.40;;
50122;SDS011;36021;48.670;6.184;2022-07-31T02:11:22;2.72;;;1.55;;
50122;SDS011;36021;48.670;6.184;2022-07-31T02:13:49;3.45;;;1.63;;
50122;SDS011;36021;48.670;6.184;2022-07-31T02:16:18;2.45;;;1.42;;
50122;SDS011;36021;48.670;6.184;2022-07-31T02:18:50;1.65;;;1.45;;
50122;SDS011;36021;48.670;6.184;2022-07-31T02:21:23;3.50;;;1.60;;
50122;SDS011;36021;48.670;6.184;2022-07-31T02:23:52;2.30;;;1.90;;
50122;SDS011;36021;48.670;6.184;2022-07-31T02:26:18;2.33;;;1.35;;
50122;SDS011;36021;48.670;6.184;2022-07-31T02:28:45;6.80;;;1.63;;
50122;SDS011;36021;48.670;6.184;2022-07-31T02:31:12;3.15;;;1.48;;
50122;SDS011;36021;48.670;6.184;2022-07-31T02:33:43;2.97;;;1.40;;
50122;SDS011;36021;48.670;6.184;2022-07-31T02:36:11;3.92;;;1.70;;
50122;SDS011;36021;48.670;6.184;2022-07-31T02:38:38;4.03;;;1.50;;
50122;SDS011;36021;48.670;6.184;2022-07-31T02:41:06;2.40;;;1.77;;
50122;SDS011;36021;48.670;6.184;2022-07-31T02:43:35;4.28;;;1.98;;
50122;SDS011;36021;48.670;6.184;2022-07-31T02:46:12;5.10;;;2.60;;
50122;SDS011;36021;48.670;6.184;2022-07-31T02:48:39;4.20;;;1.88;;
50122;SDS011;36021;48.670;6.184;2022-07-31T02:51:08;4.10;;;1.38;;
50122;SDS011;36021;48.670;6.184;2022-07-31T02:53:34;1.95;;;1.67;;
50122;SDS011;36021;48.670;6.184;2022-07-31T02:56:02;3.20;;;1.75;;
50122;SDS011;36021;48.670;6.184;2022-07-31T02:58:33;1.90;;;1.70;;
50122;SDS011;36021;48.670;6.184;2022-07-31T03:01:04;4.30;;;2.00;;
50122;SDS011;36021;48.670;6.184;2022-07-31T03:03:32;2.28;;;2.08;;
50122;SDS011;36021;48.670;6.184;2022-07-31T03:05:57;4.05;;;1.63;;
50122;SDS011;36021;48.670;6.184;2022-07-31T03:08:23;2.47;;;1.63;;
50122;SDS011;36021;48.670;6.184;2022-07-31T03:13:18;6.30;;;2.00;;
50122;SDS011;36021;48.670;6.184;2022-07-31T03:15:48;3.22;;;1.80;;
50122;SDS011;36021;48.670;6.184;2022-07-31T03:18:16;3.67;;;2.53;;
50122;SDS011;36021;48.670;6.184;2022-07-31T03:20:47;3.53;;;1.70;;
50122;SDS011;36021;48.670;6.184;2022-07-31T03:23:18;3.35;;;1.80;;
50122;SDS011;36021;48.670;6.184;2022-07-31T03:25:51;5.22;;;2.38;;
50122;SDS011;36021;48.670;6.184;2022-07-31T03:28:20;1.88;;;1.65;;
50122;SDS011;36021;48.670;6.184;2022-07-31T03:30:46;2.60;;;1.45;;
50122;SDS011;36021;48.670;6.184;2022-07-31T03:33:16;6.35;;;2.45;;
50122;SDS011;36021;48.670;6.184;2022-07-31T03:35:41;4.38;;;1.92;;
50122;SDS011;36021;48.670;6.184;2022-07-31T03:38:07;1.85;;;1.65;;
50122;SDS011;36021;48.670;6.184;2022-07-31T03:40:33;4.00;;;1.75;;
50122;SDS011;36021;48.670;6.184;2022-07-31T03:42:59;4.55;;;1.80;;
50122;SDS011;36021;48.670;6.184;2022-07-31T03:45:26;3.30;;;1.42;;
50122;SDS011;36021;48.670;6.184;2022-07-31T03:47:54;4.05;;;1.98;;
50122;SDS011;36021;48.670;6.184;2022-07-31T03:50:19;1.85;;;1.75;;
50122;SDS011;36021;48.670;6.184;2022-07-31T03:52:46;2.67;;;1.50;;
50122;SDS011;36021;48.670;6.184;2022-07-31T03:55:13;3.03;;;1.52;;
50122;SDS011;36021;48.670;6.184;2022-07-31T03:57:39;3.55;;;1.60;;
50122;SDS011;36021;48.670;6.184;2022-07-31T04:00:07;4.10;;;1.80;;
50122;SDS011;36021;48.670;6.184;2022-07-31T04:02:41;3.95;;;1.52;;
50122;SDS011;36021;48.670;6.184;2022-07-31T04:05:28;2.72;;;1.50;;
50122;SDS011;36021;48.670;6.184;2022-07-31T04:07:54;4.00;;;1.60;;
50122;SDS011;36021;48.670;6.184;2022-07-31T04:10:20;2.58;;;1.73;;
50122;SDS011;36021;48.670;6.184;2022-07-31T04:12:46;4.55;;;1.98;;
50122;SDS011;36021;48.670;6.184;2022-07-31T04:15:12;5.03;;;1.73;;
50122;SDS011;36021;48.670;6.184;2022-07-31T04:17:38;2.63;;;1.58;;
50122;SDS011;36021;48.670;6.184;2022-07-31T04:20:05;5.87;;;1.90;;
50122;SDS011;36021;48.670;6.184;2022-07-31T04:22:32;7.63;;;2.58;;
50122;SDS011;36021;48.670;6.184;2022-07-31T04:24:59;2.55;;;1.75;;
50122;SDS011;36021;48.670;6.184;2022-07-31T04:27:44;3.10;;;2.03;;
50122;SDS011;36021;48.670;6.184;2022-07-31T04:30:10;2.38;;;1.98;;
50122;SDS011;36021;48.670;6.184;2022-07-31T04:32:36;3.20;;;1.88;;
50122;SDS011;36021;48.670;6.184;2022-07-31T04:35:05;5.60;;;2.75;;
50122;SDS011;36021;48.670;6.184;2022-07-31T04:37:31;2.35;;;1.73;;
50122;SDS011;36021;48.670;6.184;2022-07-31T04:39:58;3.30;;;1.73;;
50122;SDS011;36021;48.670;6.184;2022-07-31T04:42:23;4.07;;;1.90;;
50122;SDS011;36021;48.670;6.184;2022-07-31T04:44:49;3.45;;;1.63;;
50122;SDS011;36021;48.670;6.184;2022-07-31T04:47:15;2.53;;;1.70;;
50122;SDS011;36021;48.670;6.184;2022-07-31T04:49:44;2.85;;;1.60;;
50122;SDS011;36021;48.670;6.184;2022-07-31T04:52:13;4.30;;;1.90;;
50122;SDS011;36021;48.670;6.184;2022-07-31T04:54:42;3.75;;;1.98;;
50122;SDS011;36021;48.670;6.184;2022-07-31T04:57:10;2.38;;;1.65;;
50122;SDS011;36021;48.670;6.184;2022-07-31T04:59:35;2.20;;;1.90;;
50122;SDS011;36021;48.670;6.184;2022-07-31T05:02:01;3.15;;;1.70;;
50122;SDS011;36021;48.670;6.184;2022-07-31T05:04:27;3.83;;;1.63;;
50122;SDS011;36021;48.670;6.184;2022-07-31T05:06:53;2.42;;;1.70;;
50122;SDS011;36021;48.670;6.184;2022-07-31T05:09:21;3.90;;;1.88;;
50122;SDS011;36021;48.670;6.184;2022-07-31T05:11:50;2.47;;;1.70;;
50122;SDS011;36021;48.670;6.184;2022-07-31T05:14:17;3.70;;;1.40;;
50122;SDS011;36021;48.670;6.184;2022-07-31T05:16:44;5.05;;;1.73;;
50122;SDS011;36021;48.670;6.184;2022-07-31T05:19:11;4.38;;;1.77;;
50122;SDS011;36021;48.670;6.184;2022-07-31T05:21:56;1.73;;;1.45;;
50122;SDS011;36021;48.670;6.184;2022-07-31T05:24:34;2.75;;;1.80;;
50122;SDS011;36021;48.670;6.184;2022-07-31T05:27:07;2.42;;;1.73;;
50122;SDS011;36021;48.670;6.184;2022-07-31T05:29:34;3.25;;;1.60;;
50122;SDS011;36021;48.670;6.184;2022-07-31T05:32:00;2.58;;;1.73;;
50122;SDS011;36021;48.670;6.184;2022-07-31T05:34:29;3.90;;;1.73;;
50122;SDS011;36021;48.670;6.184;2022-07-31T05:36:55;4.57;;;1.83;;
50122;SDS011;36021;48.670;6.184;2022-07-31T05:39:23;1.65;;;1.42;;
50122;SDS011;36021;48.670;6.184;2022-07-31T05:42:08;3.08;;;1.52;;
50122;SDS011;36021;48.670;6.184;2022-07-31T05:44:52;3.38;;;1.98;;
50122;SDS011;36021;48.670;6.184;2022-07-31T05:47:18;5.32;;;1.65;;
50122;SDS011;36021;48.670;6.184;2022-07-31T05:49:43;2.03;;;1.65;;
50122;SDS011;36021;48.670;6.184;2022-07-31T05:52:09;3.90;;;1.60;;
50122;SDS011;36021;48.670;6.184;2022-07-31T05:54:35;2.40;;;1.67;;
50122;SDS011;36021;48.670;6.184;2022-07-31T05:57:19;2.78;;;1.75;;
50122;SDS011;36021;48.670;6.184;2022-07-31T05:59:45;3.33;;;1.73;;
50122;SDS011;36021;48.670;6.184;2022-07-31T06:02:11;5.70;;;2.20;;
50122;SDS011;36021;48.670;6.184;2022-07-31T06:04:55;15.80;;;3.30;;
50122;SDS011;36021;48.670;6.184;2022-07-31T06:07:20;3.53;;;1.70;;
50122;SDS011;36021;48.670;6.184;2022-07-31T06:09:46;3.90;;;1.80;;
50122;SDS011;36021;48.670;6.184;2022-07-31T06:12:12;3.13;;;1.70;;
50122;SDS011;36021;48.670;6.184;2022-07-31T06:14:38;7.00;;;1.60;;
50122;SDS011;36021;48.670;6.184;2022-07-31T06:17:10;3.70;;;1.83;;
50122;SDS011;36021;48.670;6.184;2022-07-31T06:19:39;3.72;;;1.98;;
50122;SDS011;36021;48.670;6.184;2022-07-31T06:22:05;4.90;;;1.63;;
50122;SDS011;36021;48.670;6.184;2022-07-31T06:24:31;1.63;;;1.45;;
50122;SDS011;36021;48.670;6.184;2022-07-31T06:27:00;4.97;;;1.65;;
50122;SDS011;36021;48.670;6.184;2022-07-31T06:29:28;2.30;;;1.58;;
50122;SDS011;36021;48.670;6.184;2022-07-31T06:31:54;3.85;;;1.60;;
50122;SDS011;36021;48.670;6.184;2022-07-31T06:34:20;1.88;;;1.40;;
50122;SDS011;36021;48.670;6.184;2022-07-31T06:36:47;2.58;;;1.65;;
50122;SDS011;36021;48.670;6.184;2022-07-31T06:39:15;5.43;;;1.50;;
50122;SDS011;36021;48.670;6.184;2022-07-31T06:42:19;1.63;;;1.40;;
50122;SDS011;36021;48.670;6.184;2022-07-31T06:45:04;3.63;;;1.65;;
50122;SDS011;36021;48.670;6.184;2022-07-31T06:47:48;2.60;;;1.60;;
50122;SDS011;36021;48.670;6.184;2022-07-31T06:50:37;2.85;;;1.80;;
50122;SDS011;36021;48.670;6.184;2022-07-31T06:56:01;3.17;;;1.80;;
50122;SDS011;36021;48.670;6.184;2022-07-31T06:58:27;5.18;;;2.97;;
50122;SDS011;36021;48.670;6.184;2022-07-31T07:00:53;2.15;;;1.73;;
50122;SDS011;36021;48.670;6.184;2022-07-31T07:03:19;3.25;;;1.80;;
50122;SDS011;36021;48.670;6.184;2022-07-31T07:05:44;5.32;;;1.80;;
50122;SDS011;36021;48.670;6.184;2022-07-31T07:08:10;2.72;;;1.70;;
50122;SDS011;36021;48.670;6.184;2022-07-31T07:10:36;2.47;;;1.75;;
50122;SDS011;36021;48.670;6.184;2022-07-31T07:13:17;6.32;;;1.67;;
50122;SDS011;36021;48.670;6.184;2022-07-31T07:15:42;1.83;;;1.73;;
50122;SDS011;36021;48.670;6.184;2022-07-31T07:18:08;4.50;;;2.22;;
50122;SDS011;36021;48.670;6.184;2022-07-31T07:20:42;5.05;;;2.15;;
50122;SDS011;36021;48.670;6.184;2022-07-31T07:23:08;1.80;;;1.30;;
50122;SDS011;36021;48.670;6.184;2022-07-31T07:25:46;3.72;;;1.73;;
50122;SDS011;36021;48.670;6.184;2022-07-31T07:28:13;5.70;;;2.03;;
50122;SDS011;36021;48.670;6.184;2022-07-31T07:30:40;1.92;;;1.20;;
50122;SDS011;36021;48.670;6.184;2022-07-31T07:33:06;1.80;;;1.30;;
50122;SDS011;36021;48.670;6.184;2022-07-31T07:35:33;2.45;;;1.60;;
50122;SDS011;36021;48.670;6.184;2022-07-31T07:37:59;4.13;;;1.40;;
50122;SDS011;36021;48.670;6.184;2022-07-31T07:40:25;2.72;;;1.55;;
50122;SDS011;36021;48.670;6.184;2022-07-31T07:42:51;3.78;;;2.00;;
50122;SDS011;36021;48.670;6.184;2022-07-31T07:45:17;5.22;;;1.60;;
50122;SDS011;36021;48.670;6.184;2022-07-31T07:47:43;3.38;;;1.85;;
50122;SDS011;36021;48.670;6.184;2022-07-31T07:50:10;2.05;;;1.35;;
50122;SDS011;36021;48.670;6.184;2022-07-31T07:52:56;3.42;;;1.50;;
50122;SDS011;36021;48.670;6.184;2022-07-31T07:55:40;2.90;;;1.48;;
50122;SDS011;36021;48.670;6.184;2022-07-31T07:58:24;2.42;;;1.40;;
50122;SDS011;36021;48.670;6.184;2022-07-31T08:01:22;1.80;;;1.20;;
50122;SDS011;36021;48.670;6.184;2022-07-31T08:03:54;1.33;;;1.20;;
50122;SDS011;36021;48.670;6.184;2022-07-31T08:06:20;1.48;;;1.25;;
50122;SDS011;36021;48.670;6.184;2022-07-31T08:08:48;2.45;;;1.58;;
50122;SDS011;36021;48.670;6.184;2022-07-31T08:11:36;1.13;;;1.00;;
50122;SDS011;36021;48.670;6.184;2022-07-31T08:14:10;2.03;;;1.10;;
50122;SDS011;36021;48.670;6.184;2022-07-31T08:16:54;1.15;;;1.05;;
50122;SDS011;36021;48.670;6.184;2022-07-31T08:19:24;2.35;;;1.30;;
50122;SDS011;36021;48.670;6.184;2022-07-31T08:21:51;1.60;;;1.50;;
50122;SDS011;36021;48.670;6.184;2022-07-31T08:24:17;1.65;;;1.10;;
50122;SDS011;36021;48.670;6.184;2022-07-31T08:26:44;4.68;;;1.52;;
50122;SDS011;36021;48.670;6.184;2022-07-31T08:29:28;1.33;;;1.23;;
50122;SDS011;36021;48.670;6.184;2022-07-31T08:32:03;3.08;;;1.20;;
50122;SDS011;36021;48.670;6.184;2022-07-31T08:34:48;1.08;;;1.00;;
50122;SDS011;36021;48.670;6.184;2022-07-31T08:37:14;3.97;;;1.30;;
50122;SDS011;36021;48.670;6.184;2022-07-31T08:39:45;3.00;;;1.23;;
50122;SDS011;36021;48.670;6.184;2022-07-31T08:42:12;4.90;;;1.20;;
50122;SDS011;36021;48.670;6.184;2022-07-31T08:44:39;5.70;;;1.27;;
50122;SDS011;36021;48.670;6.184;2022-07-31T08:47:06;3.05;;;1.15;;
50122;SDS011;36021;48.670;6.184;2022-07-31T08:49:36;1.42;;;1.15;;
50122;SDS011;36021;48.670;6.184;2022-07-31T08:52:11;4.32;;;1.20;;
50122;SDS011;36021;48.670;6.184;2022-07-31T08:55:00;4.50;;;1.25;;
50122;SDS011;36021;48.670;6.184;2022-07-31T08:57:31;3.40;;;1.17;;
50122;SDS011;36021;48.670;6.184;2022-07-31T08:59:57;2.33;;;1.20;;
50122;SDS011;36021;48.670;6.184;2022-07-31T09:02:23;2.38;;;1.48;;
50122;SDS011;36021;48.670;6.184;2022-07-31T09:05:27;2.10;;;1.42;;
50122;SDS011;36021;48.670;6.184;2022-07-31T09:07:53;2.08;;;1.55;;
50122;SDS011;36021;48.670;6.184;2022-07-31T09:10:26;4.22;;;1.85;;
50122;SDS011;36021;48.670;6.184;2022-07-31T09:12:53;1.88;;;1.42;;
50122;SDS011;36021;48.670;6.184;2022-07-31T09:15:23;2.05;;;1.40;;
50122;SDS011;36021;48.670;6.184;2022-07-31T09:17:51;1.40;;;1.30;;
50122;SDS011;36021;48.670;6.184;2022-07-31T09:20:18;3.53;;;1.23;;
50122;SDS011;36021;48.670;6.184;2022-07-31T09:22:45;4.05;;;1.30;;
50122;SDS011;36021;48.670;6.184;2022-07-31T09:25:13;3.72;;;1.30;;
50122;SDS011;36021;48.670;6.184;2022-07-31T09:27:43;2.97;;;1.35;;
50122;SDS011;36021;48.670;6.184;2022-07-31T09:30:10;2.35;;;1.60;;
50122;SDS011;36021;48.670;6.184;2022-07-31T09:32:54;3.80;;;1.30;;
50122;SDS011;36021;48.670;6.184;2022-07-31T09:35:50;4.22;;;1.45;;
50122;SDS011;36021;48.670;6.184;2022-07-31T09:38:17;1.15;;;1.05;;
50122;SDS011;36021;48.670;6.184;2022-07-31T09:41:16;2.75;;;1.15;;
50122;SDS011;36021;48.670;6.184;2022-07-31T09:43:57;3.97;;;1.27;;
50122;SDS011;36021;48.670;6.184;2022-07-31T09:46:25;3.80;;;1.45;;
50122;SDS011;36021;48.670;6.184;2022-07-31T09:49:02;2.40;;;1.20;;
50122;SDS011;36021;48.670;6.184;2022-07-31T09:51:36;1.45;;;1.20;;
50122;SDS011;36021;48.670;6.184;2022-07-31T09:54:20;2.30;;;1.20;;
50122;SDS011;36021;48.670;6.184;2022-07-31T09:57:11;1.10;;;1.00;;
50122;SDS011;36021;48.670;6.184;2022-07-31T09:59:41;1.08;;;0.98;;
50122;SDS011;36021;48.670;6.184;2022-07-31T10:02:08;1.38;;;1.27;;
50122;SDS011;36021;48.670;6.184;2022-07-31T10:04:40;1.10;;;1.00;;
50122;SDS011;36021;48.670;6.184;2022-07-31T10:07:11;3.08;;;1.17;;
50122;SDS011;36021;48.670;6.184;2022-07-31T10:09:39;1.33;;;1.00;;
50122;SDS011;36021;48.670;6.184;2022-07-31T10:12:38;3.28;;;1.30;;
50122;SDS011;36021;48.670;6.184;2022-07-31T10:15:08;2.85;;;1.33;;
50122;SDS011;36021;48.670;6.184;2022-07-31T10:17:40;2.40;;;1.33;;
50122;SDS011;36021;48.670;6.184;2022-07-31T10:20:29;1.88;;;1.05;;
50122;SDS011;36021;48.670;6.184;2022-07-31T10:23:27;1.73;;;1.10;;
50122;SDS011;36021;48.670;6.184;2022-07-31T10:25:57;3.63;;;1.33;;
50122;SDS011;36021;48.670;6.184;2022-07-31T10:28:24;3.70;;;1.13;;
50122;SDS011;36021;48.670;6.184;2022-07-31T10:30:53;3.17;;;1.40;;
50122;SDS011;36021;48.670;6.184;2022-07-31T10:33:20;1.55;;;1.05;;
50122;SDS011;36021;48.670;6.184;2022-07-31T10:36:05;2.95;;;1.15;;
50122;SDS011;36021;48.670;6.184;2022-07-31T10:45:07;1.10;;;1.00;;
50122;SDS011;36021;48.670;6.184;2022-07-31T10:47:58;2.08;;;0.98;;
50122;SDS011;36021;48.670;6.184;2022-07-31T10:50:43;3.15;;;1.30;;
50122;SDS011;36021;48.670;6.184;2022-07-31T10:53:20;0.73;;;0.73;;
50122;SDS011;36021;48.670;6.184;2022-07-31T10:56:06;1.60;;;0.98;;
50122;SDS011;36021;48.670;6.184;2022-07-31T10:58:57;1.05;;;0.85;;
50122;SDS011;36021;48.670;6.184;2022-07-31T11:01:47;7.07;;;1.13;;
50122;SDS011;36021;48.670;6.184;2022-07-31T11:04:32;2.50;;;0.73;;
50122;SDS011;36021;48.670;6.184;2022-07-31T11:07:24;1.48;;;0.60;;
50122;SDS011;36021;48.670;6.184;2022-07-31T11:10:11;2.47;;;0.90;;
50122;SDS011;36021;48.670;6.184;2022-07-31T11:13:07;3.50;;;1.00;;
50122;SDS011;36021;48.670;6.184;2022-07-31T11:16:03;0.98;;;0.80;;
50122;SDS011;36021;48.670;6.184;2022-07-31T11:18:38;0.93;;;0.90;;
50122;SDS011;36021;48.670;6.184;2022-07-31T11:21:05;1.80;;;0.73;;
50122;SDS011;36021;48.670;6.184;2022-07-31T11:23:33;2.80;;;1.15;;
50122;SDS011;36021;48.670;6.184;2022-07-31T11:26:00;2.67;;;0.95;;
50122;SDS011;36021;48.670;6.184;2022-07-31T11:28:27;1.10;;;0.60;;
50122;SDS011;36021;48.670;6.184;2022-07-31T11:30:54;1.05;;;0.95;;
50122;SDS011;36021;48.670;6.184;2022-07-31T11:33:37;1.10;;;1.00;;
50122;SDS011;36021;48.670;6.184;2022-07-31T11:36:07;1.10;;;0.75;;
50122;SDS011;36021;48.670;6.184;2022-07-31T11:38:42;0.75;;;0.60;;
50122;SDS011;36021;48.670;6.184;2022-07-31T11:41:10;1.70;;;1.00;;
50122;SDS011;36021;48.670;6.184;2022-07-31T11:43:36;2.25;;;0.90;;
50122;SDS011;36021;48.670;6.184;2022-07-31T11:46:03;1.65;;;1.02;;
50122;SDS011;36021;48.670;6.184;2022-07-31T11:48:30;1.83;;;0.80;;
50122;SDS011;36021;48.670;6.184;2022-07-31T11:50:57;3.03;;;0.98;;
50122;SDS011;36021;48.670;6.184;2022-07-31T11:53:24;0.90;;;0.90;;
50122;SDS011;36021;48.670;6.184;2022-07-31T11:55:51;1.25;;;0.70;;
50122;SDS011;36021;48.670;6.184;2022-07-31T11:58:20;0.90;;;0.80;;
50122;SDS011;36021;48.670;6.184;2022-07-31T12:03:16;0.70;;;0.70;;
50122;SDS011;36021;48.670;6.184;2022-07-31T12:05:48;2.15;;;0.75;;
50122;SDS011;36021;48.670;6.184;2022-07-31T12:08:16;1.38;;;0.82;;
50122;SDS011;36021;48.670;6.184;2022-07-31T12:10:42;1.40;;;0.90;;
50122;SDS011;36021;48.670;6.184;2022-07-31T12:13:09;5.15;;;0.93;;
50122;SDS011;36021;48.670;6.184;2022-07-31T12:15:39;0.70;;;0.70;;
50122;SDS011;36021;48.670;6.184;2022-07-31T12:18:06;0.47;;;0.45;;
50122;SDS011;36021;48.670;6.184;2022-07-31T12:20:32;1.02;;;0.95;;
50122;SDS011;36021;48.670;6.184;2022-07-31T12:22:59;0.45;;;0.35;;
50122;SDS011;36021;48.670;6.184;2022-07-31T12:25:25;2.28;;;0.95;;
50122;SDS011;36021;48.670;6.184;2022-07-31T12:27:55;1.10;;;0.70;;
50122;SDS011;36021;48.670;6.184;2022-07-31T12:30:21;1.15;;;0.70;;
50122;SDS011;36021;48.670;6.184;2022-07-31T12:32:49;0.85;;;0.70;;
50122;SDS011;36021;48.670;6.184;2022-07-31T12:35:15;1.60;;;0.65;;
50122;SDS011;36021;48.670;6.184;2022-07-31T12:37:42;1.35;;;0.30;;
50122;SDS011;36021;48.670;6.184;2022-07-31T12:40:20;0.60;;;0.40;;
50122;SDS011;36021;48.670;6.184;2022-07-31T12:42:47;8.90;;;1.43;;
50122;SDS011;36021;48.670;6.184;2022-07-31T12:45:13;0.88;;;0.60;;
50122;SDS011;36021;48.670;6.184;2022-07-31T12:47:39;0.73;;;0.52;;
50122;SDS011;36021;48.670;6.184;2022-07-31T12:50:05;0.63;;;0.60;;
50122;SDS011;36021;48.670;6.184;2022-07-31T12:52:30;1.75;;;0.68;;
50122;SDS011;36021;48.670;6.184;2022-07-31T12:55:00;0.95;;;0.40;;
50122;SDS011;36021;48.670;6.184;2022-07-31T12:57:29;0.40;;;0.40;;
50122;SDS011;36021;48.670;6.184;2022-07-31T12:59:56;0.50;;;0.47;;
50122;SDS011;36021;48.670;6.184;2022-07-31T13:02:21;2.80;;;0.70;;
50122;SDS011;36021;48.670;6.184;2022-07-31T13:04:47;0.70;;;0.57;;
50122;SDS011;36021;48.670;6.184;2022-07-31T13:07:13;1.85;;;0.75;;
50122;SDS011;36021;48.670;6.184;2022-07-31T13:09:41;2.05;;;1.10;;
50122;SDS011;36021;48.670;6.184;2022-07-31T13:12:07;1.05;;;0.80;;
50122;SDS011;36021;48.670;6.184;2022-07-31T13:14:33;2.67;;;0.90;;
50122;SDS011;36021;48.670;6.184;2022-07-31T13:17:00;0.90;;;0.45;;
50122;SDS011;36021;48.670;6.184;2022-07-31T13:19:27;1.60;;;0.35;;
50122;SDS011;36021;48.670;6.184;2022-07-31T13:21:52;0.93;;;0.73;;
50122;SDS011;36021;48.670;6.184;2022-07-31T13:24:19;2.13;;;0.80;;
50122;SDS011;36021;48.670;6.184;2022-07-31T13:26:46;0.90;;;0.60;;
50122;SDS011;36021;48.670;6.184;2022-07-31T13:29:12;0.77;;;0.60;;
50122;SDS011;36021;48.670;6.184;2022-07-31T13:31:38;0.57;;;0.55;;
50122;SDS011;36021;48.670;6.184;2022-07-31T13:34:04;1.42;;;0.75;;
50122;SDS011;36021;48.670;6.184;2022-07-31T13:36:30;0.70;;;0.60;;
50122;SDS011;36021;48.670;6.184;2022-07-31T13:38:56;0.65;;;0.60;;
50122;SDS011;36021;48.670;6.184;2022-07-31T13:41:21;0.38;;;0.38;;
50122;SDS011;36021;48.670;6.184;2022-07-31T13:43:52;1.40;;;0.70;;
50122;SDS011;36021;48.670;6.184;2022-07-31T13:46:19;0.80;;;0.50;;
50122;SDS011;36021;48.670;6.184;2022-07-31T13:48:47;0.98;;;0.47;;
50122;SDS011;36021;48.670;6.184;2022-07-31T13:51:15;2.90;;;0.60;;
50122;SDS011;36021;48.670;6.184;2022-07-31T13:53:41;1.33;;;0.82;;
50122;SDS011;36021;48.670;6.184;2022-07-31T13:56:07;0.73;;;0.70;;
50122;SDS011;36021;48.670;6.184;2022-07-31T13:58:33;1.10;;;0.50;;
50122;SDS011;36021;48.670;6.184;2022-07-31T14:00:59;0.95;;;0.45;;
50122;SDS011;36021;48.670;6.184;2022-07-31T14:03:25;0.60;;;0.55;;
50122;SDS011;36021;48.670;6.184;2022-07-31T14:05:51;0.75;;;0.60;;
50122;SDS011;36021;48.670;6.184;2022-07-31T14:08:17;0.60;;;0.60;;
50122;SDS011;36021;48.670;6.184;2022-07-31T14:10:44;0.50;;;0.50;;
50122;SDS011;36021;48.670;6.184;2022-07-31T14:13:11;0.60;;;0.60;;
50122;SDS011;36021;48.670;6.184;2022-07-31T14:15:37;0.60;;;0.60;;
50122;SDS011;36021;48.670;6.184;2022-07-31T14:18:03;0.60;;;0.50;;
50122;SDS011;36021;48.670;6.184;2022-07-31T14:20:29;1.58;;;0.50;;
50122;SDS011;36021;48.670;6.184;2022-07-31T14:22:58;0.85;;;0.50;;
50122;SDS011;36021;48.670;6.184;2022-07-31T14:25:27;0.80;;;0.70;;
50122;SDS011;36021;48.670;6.184;2022-07-31T14:27:53;1.05;;;0.85;;
50122;SDS011;36021;48.670;6.184;2022-07-31T14:30:19;0.85;;;0.80;;
50122;SDS011;36021;48.670;6.184;2022-07-31T14:32:45;1.92;;;0.85;;
50122;SDS011;36021;48.670;6.184;2022-07-31T14:35:11;0.83;;;0.50;;
50122;SDS011;36021;48.670;6.184;2022-07-31T14:37:37;2.35;;;0.60;;
50122;SDS011;36021;48.670;6.184;2022-07-31T14:40:03;0.82;;;0.50;;
50122;SDS011;36021;48.670;6.184;2022-07-31T14:44:56;1.10;;;0.70;;
50122;SDS011;36021;48.670;6.184;2022-07-31T14:47:25;0.60;;;0.60;;
50122;SDS011;36021;48.670;6.184;2022-07-31T14:49:51;1.42;;;0.60;;
50122;SDS011;36021;48.670;6.184;2022-07-31T14:52:17;0.60;;;0.50;;
50122;SDS011;36021;48.670;6.184;2022-07-31T14:54:43;2.00;;;0.55;;
50122;SDS011;36021;48.670;6.184;2022-07-31T14:57:10;0.63;;;0.60;;
50122;SDS011;36021;48.670;6.184;2022-07-31T14:59:36;0.65;;;0.45;;
50122;SDS011;36021;48.670;6.184;2022-07-31T15:02:02;1.60;;;0.50;;
50122;SDS011;36021;48.670;6.184;2022-07-31T15:04:27;6.90;;;0.70;;
50122;SDS011;36021;48.670;6.184;2022-07-31T15:06:53;1.35;;;0.68;;
50122;SDS011;36021;48.670;6.184;2022-07-31T15:09:19;0.70;;;0.70;;
50122;SDS011;36021;48.670;6.184;2022-07-31T15:11:45;0.50;;;0.50;;
50122;SDS011;36021;48.670;6.184;2022-07-31T15:14:16;1.80;;;0.82;;
50122;SDS011;36021;48.670;6.184;2022-07-31T15:16:43;1.45;;;0.70;;
50122;SDS011;36021;48.670;6.184;2022-07-31T15:19:09;0.93;;;0.45;;
50122;SDS011;36021;48.670;6.184;2022-07-31T15:21:38;0.60;;;0.57;;
50122;SDS011;36021;48.670;6.184;2022-07-31T15:24:04;1.05;;;0.80;;
50122;SDS011;36021;48.670;6.184;2022-07-31T15:26:31;0.70;;;0.70;;
50122;SDS011;36021;48.670;6.184;2022-07-31T15:28:57;1.67;;;0.52;;
50122;SDS011;36021;48.670;6.184;2022-07-31T15:31:23;0.40;;;0.40;;